createdAt,value
2022-09-02T00:01:12.136Z,14.22
2022-09-02T00:03:38.661Z,14.19
2022-09-02T00:06:05.350Z,14.17
2022-09-02T00:08:31.978Z,14.16
2022-09-02T00:11:06.247Z,14.25
2022-09-02T00:13:36.090Z,14.30
2022-09-02T00:16:04.040Z,14.38
2022-09-02T00:18:30.938Z,14.11
2022-09-02T00:20:57.436Z,14.03
2022-09-02T00:23:23.930Z,13.98
2022-09-02T00:25:54.014Z,13.99
2022-09-02T00:28:20.793Z,13.94
2022-09-02T00:30:48.621Z,13.93
2022-09-02T00:33:16.163Z,13.90
2022-09-02T00:35:43.990Z,13.81
2022-09-02T00:38:11.200Z,13.85
2022-09-02T00:40:38.863Z,13.92
2022-09-02T00:43:08.337Z,13.65
2022-09-02T00:45:36.494Z,13.59
2022-09-02T00:48:03.974Z,13.47
2022-09-02T00:50:35.113Z,13.55
2022-09-02T00:53:08.299Z,13.65
2022-09-02T00:55:40.482Z,13.57
2022-09-02T00:58:14.949Z,13.61
2022-09-02T01:00:44.789Z,13.61
2022-09-02T01:03:15.971Z,13.71
2022-09-02T01:05:46.078Z,13.74
2022-09-02T01:08:15.776Z,13.60
2022-09-02T01:10:43.168Z,13.47
2022-09-02T01:13:15.910Z,13.60
2022-09-02T01:15:49.314Z,13.65
2022-09-02T01:18:25.633Z,13.60
2022-09-02T01:20:52.222Z,13.48
2022-09-02T01:23:19.424Z,13.45
2022-09-02T01:25:47.097Z,13.46
2022-09-02T01:28:16.162Z,13.48
2022-09-02T01:30:49.910Z,13.42
2022-09-02T01:33:18.667Z,13.31
2022-09-02T01:35:45.381Z,13.49
2022-09-02T01:38:12.600Z,13.36
2022-09-02T01:40:40.196Z,13.31
2022-09-02T01:43:11.138Z,13.24
2022-09-02T01:45:40.330Z,13.23
2022-09-02T01:48:08.968Z,13.04
2022-09-02T01:50:46.791Z,13.21
2022-09-02T01:53:14.670Z,13.14
2022-09-02T01:55:41.711Z,13.09
2022-09-02T01:58:08.748Z,13.00
2022-09-02T02:05:34.307Z,12.89
2022-09-02T02:08:03.199Z,12.84
2022-09-02T02:10:30.977Z,12.51
2022-09-02T02:13:00.961Z,12.29
2022-09-02T02:17:56.634Z,11.99
2022-09-02T02:20:23.640Z,11.96
2022-09-02T02:22:50.190Z,11.83
2022-09-02T02:25:18.732Z,11.58
2022-09-02T02:27:49.926Z,11.45
2022-09-02T02:30:17.580Z,11.53
2022-09-02T02:32:47.081Z,11.50
2022-09-02T02:35:18.926Z,11.39
2022-09-02T02:37:49.080Z,11.52
2022-09-02T02:40:19.049Z,11.72
2022-09-02T02:42:47.587Z,11.86
2022-09-02T02:45:15.628Z,11.95
2022-09-02T02:47:46.027Z,11.93
2022-09-02T02:50:15.786Z,12.00
2022-09-02T02:52:42.450Z,12.11
2022-09-02T02:55:10.657Z,12.21
2022-09-02T02:57:39.157Z,12.11
2022-09-02T03:00:19.568Z,11.75
2022-09-02T03:02:48.089Z,11.97
2022-09-02T03:05:16.118Z,11.83
2022-09-02T03:07:43.069Z,11.74
2022-09-02T03:10:11.182Z,11.76
2022-09-02T03:12:40.669Z,11.72
2022-09-02T03:15:09.055Z,11.74
2022-09-02T03:17:35.756Z,11.73
2022-09-02T03:20:03.230Z,11.74
2022-09-02T03:22:33.285Z,11.81
2022-09-02T03:25:00.121Z,11.81
2022-09-02T03:27:26.664Z,11.73
2022-09-02T03:29:56.713Z,11.77
2022-09-02T03:32:23.232Z,11.68
2022-09-02T03:34:54.402Z,11.59
2022-09-02T03:37:21.026Z,11.69
2022-09-02T03:39:47.584Z,11.72
2022-09-02T03:42:19.360Z,11.63
2022-09-02T03:44:47.588Z,11.66
2022-09-02T03:47:15.140Z,11.59
2022-09-02T03:49:41.643Z,11.64
2022-09-02T03:52:11.024Z,11.69
2022-09-02T03:54:38.445Z,11.61
2022-09-02T03:57:05.460Z,11.63
2022-09-02T03:59:33.030Z,11.58
2022-09-02T04:02:02.753Z,11.53
2022-09-02T04:04:30.085Z,11.51
2022-09-02T04:06:57.370Z,11.35
2022-09-02T04:09:24.040Z,11.41
2022-09-02T04:11:50.569Z,11.27
2022-09-02T04:14:17.198Z,11.44
2022-09-02T04:16:43.643Z,11.23
2022-09-02T04:19:10.306Z,11.38
2022-09-02T04:21:40.881Z,11.31
2022-09-02T04:24:09.919Z,11.20
2022-09-02T04:26:44.802Z,11.20
2022-09-02T04:29:14.400Z,11.10
2022-09-02T04:31:42.318Z,10.89
2022-09-02T04:34:09.722Z,10.62
2022-09-02T04:36:36.722Z,10.42
2022-09-02T04:39:09.337Z,10.13
2022-09-02T04:41:37.590Z,10.04
2022-09-02T04:44:07.569Z,9.97
2022-09-02T04:46:38.041Z,9.79
2022-09-02T04:49:08.655Z,9.99
2022-09-02T04:51:37.276Z,9.92
2022-09-02T04:54:05.302Z,9.93
2022-09-02T04:56:32.426Z,9.98
2022-09-02T04:59:01.315Z,10.15
2022-09-02T05:01:32.492Z,10.41
2022-09-02T05:04:09.430Z,10.35
2022-09-02T05:06:44.096Z,10.20
2022-09-02T05:09:15.427Z,10.55
2022-09-02T05:11:41.932Z,10.69
2022-09-02T05:14:08.610Z,10.77
2022-09-02T05:16:40.499Z,10.81
2022-09-02T05:19:13.663Z,10.65
2022-09-02T05:21:47.012Z,10.88
2022-09-02T05:24:26.443Z,10.95
2022-09-02T05:26:54.807Z,11.06
2022-09-02T05:29:22.269Z,11.12
2022-09-02T05:31:49.908Z,11.32
2022-09-02T05:34:17.428Z,11.60
2022-09-02T05:36:44.146Z,11.94
2022-09-02T05:39:10.811Z,12.15
2022-09-02T05:41:38.531Z,12.46
2022-09-02T05:44:07.294Z,12.98
2022-09-02T05:46:36.013Z,13.50
2022-09-02T05:49:08.812Z,14.14
2022-09-02T05:51:44.916Z,14.87
2022-09-02T05:54:15.936Z,15.51
2022-09-02T05:56:45.232Z,15.97
2022-09-02T05:59:13.902Z,16.62
2022-09-02T06:01:40.804Z,17.03
2022-09-02T06:04:07.528Z,17.52
2022-09-02T06:06:38.422Z,17.87
2022-09-02T06:09:09.346Z,18.39
2022-09-02T06:11:45.276Z,18.69
2022-09-02T06:14:20.695Z,19.12
2022-09-02T06:16:50.318Z,19.44
2022-09-02T06:19:25.805Z,19.70
2022-09-02T06:21:54.497Z,19.84
2022-09-02T06:24:24.357Z,20.23
2022-09-02T06:26:54.539Z,19.87
2022-09-02T06:29:26.051Z,20.15
2022-09-02T06:31:53.865Z,20.34
2022-09-02T06:34:23.883Z,20.47
2022-09-02T06:36:50.728Z,20.01
2022-09-02T06:39:21.848Z,19.66
2022-09-02T06:41:49.858Z,19.41
2022-09-02T06:44:21.552Z,18.94
2022-09-02T06:46:55.037Z,18.86
2022-09-02T06:49:22.987Z,18.62
2022-09-02T06:51:51.524Z,18.86
2022-09-02T06:54:21.564Z,18.76
2022-09-02T06:56:52.935Z,18.43
2022-09-02T06:59:23.452Z,17.94
2022-09-02T07:01:56.369Z,18.48
2022-09-02T07:04:42.208Z,18.67
2022-09-02T07:07:12.322Z,18.78
2022-09-02T07:09:51.913Z,19.15
2022-09-02T07:12:19.607Z,19.45
2022-09-02T07:14:55.760Z,19.79
2022-09-02T07:17:27.941Z,19.28
2022-09-02T07:20:00.603Z,19.19
2022-09-02T07:22:31.602Z,19.02
2022-09-02T07:25:00.636Z,19.50
2022-09-02T07:27:27.346Z,19.75
2022-09-02T07:29:56.295Z,18.84
2022-09-02T07:32:23.434Z,18.98
2022-09-02T07:34:50.036Z,18.66
2022-09-02T07:37:17.169Z,18.51
2022-09-02T07:39:45.169Z,18.96
2022-09-02T07:42:14.522Z,18.74
2022-09-02T07:47:09.196Z,19.20
2022-09-02T07:52:25.694Z,18.95
2022-09-02T07:54:54.360Z,19.45
2022-09-02T07:57:21.080Z,19.56
2022-09-02T07:59:48.373Z,19.43
2022-09-02T08:02:16.880Z,19.34
2022-09-02T08:04:44.558Z,19.51
2022-09-02T08:07:11.820Z,19.52
2022-09-02T08:09:38.564Z,19.71
2022-09-02T08:12:05.219Z,19.49
2022-09-02T08:14:31.701Z,19.41
2022-09-02T08:16:58.427Z,19.50
2022-09-02T08:19:27.288Z,19.77
2022-09-02T08:21:53.811Z,20.23
2022-09-02T08:24:20.230Z,20.97
2022-09-02T08:26:47.350Z,21.24
2022-09-02T08:29:13.762Z,21.27
2022-09-02T08:31:40.257Z,21.19
2022-09-02T08:34:06.852Z,20.56
2022-09-02T08:36:33.306Z,20.33
2022-09-02T08:39:03.734Z,19.81
2022-09-02T08:41:51.448Z,20.06
2022-09-02T08:44:22.642Z,19.86
2022-09-02T08:46:53.815Z,19.88
2022-09-02T08:49:35.201Z,19.66
2022-09-02T08:52:04.685Z,20.25
2022-09-02T08:54:44.448Z,20.04
2022-09-02T08:57:11.990Z,20.55
2022-09-02T09:02:21.696Z,20.83
2022-09-02T09:05:12.042Z,20.93
2022-09-02T09:07:59.742Z,20.76
2022-09-02T09:10:56.903Z,21.00
2022-09-02T09:13:56.186Z,21.25
2022-09-02T09:16:35.027Z,21.68
2022-09-02T09:19:16.418Z,22.19
2022-09-02T09:21:44.352Z,22.27
2022-09-02T09:24:28.979Z,21.46
2022-09-02T09:26:55.984Z,21.52
2022-09-02T09:29:22.582Z,21.56
2022-09-02T09:31:57.767Z,20.90
2022-09-02T09:34:24.371Z,21.01
2022-09-02T09:36:53.811Z,21.09
2022-09-02T09:39:29.975Z,21.04
2022-09-02T09:42:11.636Z,21.04
2022-09-02T09:44:48.042Z,21.26
2022-09-02T09:47:20.641Z,21.66
2022-09-02T09:50:14.519Z,21.42
2022-09-02T09:52:40.974Z,21.78
2022-09-02T09:55:24.586Z,21.80
2022-09-02T09:57:53.502Z,21.47
2022-09-02T10:00:32.304Z,21.16
2022-09-02T10:03:05.235Z,21.29
2022-09-02T10:05:37.134Z,21.45
2022-09-02T10:08:17.613Z,21.50
2022-09-02T10:11:02.726Z,21.27
2022-09-02T10:13:35.467Z,21.42
2022-09-02T10:16:25.505Z,21.53
2022-09-02T10:19:22.265Z,21.59
2022-09-02T10:22:09.785Z,20.97
2022-09-02T10:25:20.477Z,21.55
2022-09-02T10:27:58.921Z,21.42
2022-09-02T10:30:26.925Z,21.42
2022-09-02T10:33:13.097Z,21.41
2022-09-02T10:35:45.493Z,21.45
2022-09-02T10:38:34.710Z,21.30
2022-09-02T10:41:32.500Z,21.19
2022-09-02T10:44:01.817Z,21.11
2022-09-02T10:46:39.020Z,20.96
2022-09-02T10:49:19.666Z,21.28
2022-09-02T10:52:28.112Z,21.27
2022-09-02T10:55:03.422Z,21.01
2022-09-02T10:57:45.435Z,20.98
2022-09-02T11:00:16.961Z,21.54
2022-09-02T11:03:12.456Z,21.84
2022-09-02T11:05:45.770Z,21.82
2022-09-02T11:08:41.445Z,21.66
2022-09-02T11:11:21.169Z,22.13
2022-09-02T11:14:02.985Z,22.37
2022-09-02T11:16:41.820Z,22.45
2022-09-02T11:19:39.486Z,22.12
2022-09-02T11:22:11.984Z,21.64
2022-09-02T11:24:52.302Z,21.84
2022-09-02T11:27:47.872Z,21.91
2022-09-02T11:30:21.400Z,21.95
2022-09-02T11:33:12.760Z,21.77
2022-09-02T11:35:39.638Z,21.50
2022-09-02T11:38:15.080Z,21.56
2022-09-02T11:44:29.479Z,22.01
2022-09-02T11:47:25.826Z,22.09
2022-09-02T11:50:15.114Z,21.96
2022-09-02T11:52:59.711Z,21.84
2022-09-02T11:55:34.047Z,21.65
2022-09-02T11:58:01.350Z,21.69
2022-09-02T12:00:31.648Z,21.83
2022-09-02T12:03:28.542Z,21.88
2022-09-02T12:06:13.543Z,21.93
2022-09-02T12:08:40.645Z,21.64
2022-09-02T12:11:07.808Z,21.53
2022-09-02T12:13:43.760Z,21.31
2022-09-02T12:16:16.427Z,21.73
2022-09-02T12:18:45.102Z,21.81
2022-09-02T12:21:16.327Z,21.89
2022-09-02T12:23:49.530Z,21.96
2022-09-02T12:26:17.854Z,21.97
2022-09-02T12:28:48.880Z,21.90
2022-09-02T12:31:36.559Z,22.21
2022-09-02T12:34:24.851Z,22.11
2022-09-02T12:36:55.608Z,21.71
2022-09-02T12:39:25.439Z,21.71
2022-09-02T12:42:06.984Z,21.68
2022-09-02T12:44:44.386Z,21.60
2022-09-02T12:47:33.664Z,21.84
2022-09-02T12:50:32.412Z,21.93
2022-09-02T12:53:32.344Z,21.58
2022-09-02T12:56:21.861Z,21.82
2022-09-02T12:58:51.931Z,21.61
2022-09-02T13:01:37.364Z,21.69
2022-09-02T13:04:16.379Z,21.79
2022-09-02T13:06:49.476Z,21.67
2022-09-02T13:09:39.094Z,21.99
2022-09-02T13:12:31.565Z,22.13
2022-09-02T13:15:23.395Z,22.40
2022-09-02T13:18:24.318Z,22.21
2022-09-02T13:21:09.386Z,22.49
2022-09-02T13:24:12.850Z,22.26
2022-09-02T13:27:01.065Z,22.27
2022-09-02T13:30:07.331Z,22.43
2022-09-02T13:32:34.943Z,22.05
2022-09-02T13:35:05.512Z,22.17
2022-09-02T13:37:40.708Z,22.02
2022-09-02T13:40:27.144Z,21.79
2022-09-02T13:43:01.570Z,21.74
2022-09-02T13:45:37.207Z,21.95
2022-09-02T13:48:10.242Z,22.18
2022-09-02T13:50:42.125Z,22.20
2022-09-02T13:56:02.477Z,22.11
2022-09-02T13:58:28.813Z,22.06
2022-09-02T14:01:01.673Z,21.84
2022-09-02T14:03:33.018Z,21.81
2022-09-02T14:06:01.285Z,22.21
2022-09-02T14:08:30.566Z,22.40
2022-09-02T14:10:58.344Z,22.45
2022-09-02T14:13:25.243Z,22.08
2022-09-02T14:15:51.749Z,22.16
2022-09-02T14:18:21.492Z,22.12
2022-09-02T14:21:09.590Z,22.18
2022-09-02T14:23:46.301Z,22.22
2022-09-02T14:26:24.076Z,22.16
2022-09-02T14:28:51.869Z,22.43
2022-09-02T14:31:30.577Z,22.62
2022-09-02T14:33:57.896Z,22.56
2022-09-02T14:36:24.319Z,22.14
2022-09-02T14:38:57.216Z,22.21
2022-09-02T14:41:28.175Z,22.16
2022-09-02T14:44:00.249Z,22.10
2022-09-02T14:46:30.303Z,22.13
2022-09-02T14:49:04.411Z,22.33
2022-09-02T14:51:36.473Z,22.11
2022-09-02T14:54:03.996Z,22.09
2022-09-02T14:56:48.501Z,22.33
2022-09-02T14:59:15.002Z,22.52
2022-09-02T15:01:43.961Z,22.55
2022-09-02T15:04:10.686Z,22.47
2022-09-02T15:06:42.101Z,22.40
2022-09-02T15:09:09.194Z,22.41
2022-09-02T15:11:38.549Z,22.28
2022-09-02T15:14:05.750Z,21.83
2022-09-02T15:16:33.034Z,21.75
2022-09-02T15:19:00.050Z,21.59
2022-09-02T15:21:26.592Z,21.63
2022-09-02T15:23:52.994Z,21.93
2022-09-02T15:26:19.444Z,22.06
2022-09-02T15:28:45.899Z,22.06
2022-09-02T15:31:12.828Z,22.23
2022-09-02T15:33:41.310Z,22.11
2022-09-02T15:36:13.301Z,22.22
2022-09-02T15:38:43.101Z,22.06
2022-09-02T15:41:18.798Z,22.17
2022-09-02T15:43:47.478Z,22.20
2022-09-02T15:46:17.646Z,22.03
2022-09-02T15:48:44.370Z,22.08
2022-09-02T15:51:12.903Z,22.19
2022-09-02T15:53:39.755Z,22.17
2022-09-02T15:56:15.820Z,22.35
2022-09-02T15:58:42.310Z,22.23
2022-09-02T16:01:09.138Z,22.13
2022-09-02T16:03:36.527Z,22.12
2022-09-02T16:06:05.516Z,22.04
2022-09-02T16:08:33.365Z,21.95
2022-09-02T16:11:04.639Z,21.77
2022-09-02T16:13:31.344Z,21.75
2022-09-02T16:16:05.759Z,21.89
2022-09-02T16:18:33.947Z,21.98
2022-09-02T16:21:00.560Z,22.12
2022-09-02T16:23:27.595Z,22.27
2022-09-02T16:26:27.889Z,22.14
2022-09-02T16:29:03.993Z,22.24
2022-09-02T16:31:32.558Z,22.25
2022-09-02T16:34:10.908Z,22.13
2022-09-02T16:36:43.301Z,22.00
2022-09-02T16:39:12.010Z,22.05
2022-09-02T16:41:49.825Z,21.94
2022-09-02T16:44:18.454Z,21.86
2022-09-02T16:46:46.550Z,21.96
2022-09-02T16:49:18.593Z,21.94
2022-09-02T16:51:46.226Z,21.93
2022-09-02T16:54:17.901Z,21.97
2022-09-02T16:56:48.614Z,22.07
2022-09-02T16:59:15.140Z,22.03
2022-09-02T17:01:41.590Z,21.93
2022-09-02T17:04:08.999Z,21.83
2022-09-02T17:06:41.277Z,21.93
2022-09-02T17:09:08.951Z,21.85
2022-09-02T17:11:39.569Z,21.77
2022-09-02T17:14:05.973Z,21.61
2022-09-02T17:16:35.723Z,21.65
2022-09-02T17:19:02.641Z,21.69
2022-09-02T17:21:42.338Z,21.66
2022-09-02T17:24:11.574Z,21.59
2022-09-02T17:26:40.002Z,21.55
2022-09-02T17:29:17.226Z,21.38
2022-09-02T17:31:52.732Z,21.46
2022-09-02T17:34:19.283Z,21.47
2022-09-02T17:36:45.712Z,21.37
2022-09-02T17:39:14.672Z,21.30
2022-09-02T17:41:59.662Z,21.15
2022-09-02T17:44:35.296Z,21.09
2022-09-02T17:47:14.120Z,20.98
2022-09-02T17:49:46.557Z,21.00
2022-09-02T17:52:16.438Z,20.98
2022-09-02T17:54:43.280Z,20.97
2022-09-02T17:57:19.079Z,20.99
2022-09-02T18:00:12.406Z,20.99
2022-09-02T18:02:42.176Z,20.80
2022-09-02T18:05:16.216Z,20.77
2022-09-02T18:08:01.153Z,20.75
2022-09-02T18:10:32.772Z,20.65
2022-09-02T18:13:04.117Z,20.55
2022-09-02T18:15:43.271Z,20.44
2022-09-02T18:18:11.856Z,20.43
2022-09-02T18:20:43.905Z,20.43
2022-09-02T18:23:42.932Z,20.29
2022-09-02T18:26:35.657Z,20.18
2022-09-02T18:29:25.397Z,20.11
2022-09-02T18:32:28.829Z,20.01
2022-09-02T18:35:07.682Z,19.82
2022-09-02T18:37:49.286Z,19.79
2022-09-02T18:40:21.717Z,19.73
2022-09-02T18:43:12.913Z,19.72
2022-09-02T18:45:54.644Z,19.66
2022-09-02T18:48:33.000Z,19.61
2022-09-02T18:51:17.826Z,19.30
2022-09-02T18:53:54.086Z,19.19
2022-09-02T18:56:28.759Z,19.11
2022-09-02T18:59:02.121Z,19.05
2022-09-02T19:01:30.782Z,19.02
2022-09-02T19:04:00.370Z,19.06
2022-09-02T19:06:34.337Z,18.98
2022-09-02T19:09:12.442Z,19.02
2022-09-02T19:11:39.706Z,18.78
2022-09-02T19:14:29.429Z,18.67
2022-09-02T19:16:58.275Z,18.60
2022-09-02T19:19:27.251Z,18.40
2022-09-02T19:21:58.101Z,18.11
2022-09-02T19:24:28.411Z,17.96
2022-09-02T19:27:08.230Z,17.76
2022-09-02T19:29:38.988Z,17.45
2022-09-02T19:32:06.345Z,17.45
2022-09-02T19:34:37.872Z,17.65
2022-09-02T19:37:05.290Z,17.66
2022-09-02T19:39:35.095Z,17.42
2022-09-02T19:42:01.629Z,17.26
2022-09-02T19:44:28.646Z,17.19
2022-09-02T19:47:42.236Z,17.36
2022-09-02T19:49:42.558Z,17.40
2022-09-02T19:52:11.197Z,17.49
2022-09-02T19:54:38.808Z,17.49
2022-09-02T19:57:05.723Z,17.03
2022-09-02T19:59:33.026Z,16.87
2022-09-02T20:01:59.672Z,16.79
2022-09-02T20:04:27.858Z,16.90
2022-09-02T20:06:57.931Z,16.83
2022-09-02T20:09:25.632Z,16.93
2022-09-02T20:11:55.789Z,16.75
2022-09-02T20:14:22.370Z,16.89
2022-09-02T20:16:54.180Z,16.89
2022-09-02T20:19:21.695Z,16.98
2022-09-02T20:21:49.312Z,16.99
2022-09-02T20:24:27.045Z,17.02
2022-09-02T20:27:20.644Z,16.93
2022-09-02T20:29:58.874Z,16.81
2022-09-02T20:32:53.390Z,16.83
2022-09-02T20:35:24.032Z,16.88
2022-09-02T20:38:12.324Z,16.89
2022-09-02T20:41:25.981Z,16.93
2022-09-02T20:44:07.656Z,17.02
2022-09-02T20:46:44.271Z,16.94
2022-09-02T20:49:40.120Z,16.99
2022-09-02T20:52:21.577Z,16.73
2022-09-02T20:54:55.523Z,16.83
2022-09-02T20:57:51.750Z,16.72
2022-09-02T21:00:22.599Z,16.69
2022-09-02T21:03:05.360Z,16.60
2022-09-02T21:05:38.563Z,16.61
2022-09-02T21:08:10.076Z,16.34
2022-09-02T21:10:42.012Z,16.36
2022-09-02T21:13:34.537Z,16.34
2022-09-02T21:16:08.914Z,16.38
2022-09-02T21:18:47.435Z,16.17
2022-09-02T21:21:23.361Z,16.40
2022-09-02T21:23:56.250Z,16.37
2022-09-02T21:26:48.310Z,16.28
2022-09-02T21:29:37.121Z,16.15
2022-09-02T21:32:16.303Z,16.07
2022-09-02T21:34:52.384Z,15.96
2022-09-02T21:37:21.976Z,16.04
2022-09-02T21:39:58.287Z,16.14
2022-09-02T21:42:40.949Z,16.14
2022-09-02T21:45:11.749Z,16.21
2022-09-02T21:47:59.153Z,16.27
2022-09-02T21:50:46.267Z,16.28
2022-09-02T21:53:25.452Z,16.24
2022-09-02T21:56:16.670Z,16.27
2022-09-02T21:59:21.047Z,16.33
2022-09-02T22:02:03.764Z,16.39
2022-09-02T22:04:53.546Z,16.50
2022-09-02T22:07:28.395Z,16.42
2022-09-02T22:10:03.761Z,16.37
2022-09-02T22:12:39.770Z,16.34
2022-09-02T22:15:24.048Z,16.35
2022-09-02T22:17:56.137Z,16.43
2022-09-02T22:20:34.275Z,16.41
2022-09-02T22:23:07.050Z,16.45
2022-09-02T22:25:35.994Z,16.50
2022-09-02T22:28:09.783Z,16.55
2022-09-02T22:30:42.053Z,16.47
2022-09-02T22:33:15.978Z,16.56
2022-09-02T22:36:00.655Z,16.64
2022-09-02T22:38:35.334Z,16.77
2022-09-02T22:41:11.319Z,16.77
2022-09-02T22:43:48.992Z,16.83
2022-09-02T22:46:46.316Z,16.90
2022-09-02T22:49:48.998Z,16.92
2022-09-02T22:52:39.941Z,16.85
2022-09-02T22:55:12.701Z,16.82
2022-09-02T22:58:04.991Z,16.84
2022-09-02T23:00:39.395Z,16.86
2022-09-02T23:03:16.927Z,16.91
2022-09-02T23:06:04.645Z,17.02
2022-09-02T23:08:36.881Z,17.00
2022-09-02T23:11:11.772Z,17.05
2022-09-02T23:13:47.429Z,16.81
2022-09-02T23:16:43.038Z,17.02
2022-09-02T23:19:25.925Z,16.98
2022-09-02T23:22:17.952Z,16.93
2022-09-02T23:25:03.194Z,17.02
2022-09-02T23:28:15.329Z,17.09
2022-09-02T23:30:52.343Z,16.94
2022-09-02T23:33:43.758Z,17.02
2022-09-02T23:36:19.949Z,17.11
2022-09-02T23:39:11.952Z,17.23
2022-09-02T23:41:42.769Z,17.19
2022-09-02T23:44:12.488Z,17.13
2022-09-02T23:47:05.165Z,17.08
2022-09-02T23:50:01.404Z,17.02
2022-09-02T23:52:33.958Z,17.12
2022-09-02T23:55:23.867Z,17.14
2022-09-02T23:58:13.104Z,17.15
